Time;durP1;ratioP1;P1;durP2;ratioP2;P2;SDS_P1;SDS_P2;PMS_P1;PMS_P2;Temp;Humidity;BMP_temperature;BMP_pressure;BME280_temperature;BME280_humidity;BME280_pressure;Samples;Min_cycle;Max_cycle;Signal;HPM_P1;HPM_P2
2021/07/15 00:00:31;;;;;;;58.23;26.57;;;16.90;99.90;;;;;;5093702;28;20294;-75
2021/07/15 00:03:00;;;;;;;62.43;26.90;;;16.90;99.90;;;;;;5093247;28;20582;-75
2021/07/15 00:05:31;;;;;;;62.97;26.63;;;16.80;99.90;;;;;;5092887;28;20325;-75
2021/07/15 00:07:58;;;;;;;70.87;27.27;;;16.80;99.90;;;;;;5095459;28;20209;-75
2021/07/15 00:10:29;;;;;;;71.13;26.47;;;16.80;99.90;;;;;;5092945;28;20610;-75
2021/07/15 00:12:57;;;;;;;67.67;27.57;;;16.80;99.90;;;;;;5091709;28;20221;-76
2021/07/15 00:15:26;;;;;;;75.37;28.00;;;16.80;99.90;;;;;;5092490;28;20225;-75
2021/07/15 00:17:53;;;;;;;72.30;27.87;;;16.80;99.90;;;;;;5090315;28;20198;-75
2021/07/15 00:20:20;;;;;;;71.47;27.17;;;16.80;99.90;;;;;;5092354;28;20195;-75
2021/07/15 00:22:48;;;;;;;67.67;27.53;;;16.80;99.90;;;;;;5092505;28;20282;-75
2021/07/15 00:25:18;;;;;;;73.63;28.33;;;16.80;99.90;;;;;;5092574;28;20209;-75
2021/07/15 00:27:45;;;;;;;79.77;28.73;;;16.80;99.90;;;;;;5092315;28;20221;-75
2021/07/15 00:30:13;;;;;;;79.77;27.63;;;16.80;99.90;;;;;;5092010;28;20290;-76
2021/07/15 00:32:40;;;;;;;73.57;29.13;;;16.80;99.90;;;;;;5092458;28;20199;-75
2021/07/15 00:35:09;;;;;;;72.80;29.47;;;16.80;99.90;;;;;;5093614;28;20199;-75
2021/07/15 00:37:37;;;;;;;83.40;29.37;;;16.80;99.90;;;;;;5095231;28;20234;-76
2021/07/15 00:40:07;;;;;;;79.63;30.17;;;16.80;99.90;;;;;;5092185;28;20202;-76
2021/07/15 00:42:34;;;;;;;77.50;28.93;;;16.80;99.90;;;;;;5092499;28;20199;-74
2021/07/15 00:45:01;;;;;;;82.70;29.67;;;16.80;99.90;;;;;;5091875;28;20201;-75
2021/07/15 00:47:28;;;;;;;73.60;27.80;;;16.70;99.90;;;;;;5092475;28;20290;-75
2021/07/15 00:49:55;;;;;;;85.43;29.37;;;16.70;99.90;;;;;;5091997;28;20289;-75
2021/07/15 00:52:22;;;;;;;73.53;27.43;;;16.70;99.90;;;;;;5092301;28;20290;-74
2021/07/15 00:54:49;;;;;;;91.80;29.30;;;16.70;99.90;;;;;;5100315;28;20232;-75
2021/07/15 00:57:17;;;;;;;80.90;29.30;;;16.70;99.90;;;;;;5097490;28;20286;-75
2021/07/15 00:59:44;;;;;;;78.90;29.50;;;16.70;99.90;;;;;;5096229;28;20290;-75
2021/07/15 01:02:12;;;;;;;87.37;30.03;;;16.70;99.90;;;;;;5095870;28;20210;-75
2021/07/15 01:04:39;;;;;;;78.30;28.87;;;16.70;99.90;;;;;;5097576;28;20213;-76
2021/07/15 01:07:06;;;;;;;78.83;28.67;;;16.70;99.90;;;;;;5096504;28;20205;-74
2021/07/15 01:09:33;;;;;;;82.30;29.80;;;16.70;99.90;;;;;;5096216;28;20206;-75
2021/07/15 01:12:22;;;;;;;82.63;30.13;;;16.70;99.90;;;;;;5097418;28;20208;-75
2021/07/15 01:15:07;;;;;;;78.33;27.73;;;16.70;99.90;;;;;;5095396;28;20767;-75
2021/07/15 01:17:40;;;;;;;74.37;27.80;;;16.70;99.90;;;;;;5098762;28;20220;-74
2021/07/15 01:21:03;;;;;;;73.73;29.63;;;16.80;99.90;;;;;;5082614;28;20286;-75
2021/07/15 01:24:06;;;;;;;79.37;28.17;;;16.80;99.90;;;;;;5082643;28;20199;-75
2021/07/15 01:26:53;;;;;;;84.40;28.47;;;16.70;99.90;;;;;;5095159;28;20199;-75
2021/07/15 01:29:27;;;;;;;75.33;28.47;;;16.70;99.90;;;;;;5095788;28;20205;-74
2021/07/15 01:31:57;;;;;;;64.43;26.80;;;16.70;99.90;;;;;;5095954;28;21483;-75
2021/07/15 01:34:25;;;;;;;75.80;28.23;;;16.70;99.90;;;;;;5098377;28;20207;-75
2021/07/15 01:36:58;;;;;;;70.93;26.03;;;16.70;99.90;;;;;;5095401;28;20205;-75
2021/07/15 01:39:29;;;;;;;76.83;27.47;;;16.70;99.90;;;;;;5095635;28;20203;-75
2021/07/15 01:42:00;;;;;;;76.27;26.70;;;16.70;99.90;;;;;;5099802;28;20202;-75
2021/07/15 01:44:30;;;;;;;72.83;27.13;;;16.70;99.90;;;;;;5095681;28;20544;-76
2021/07/15 01:46:59;;;;;;;86.50;28.67;;;16.70;99.90;;;;;;5095149;28;20201;-75
2021/07/15 01:49:26;;;;;;;71.57;26.33;;;16.80;99.90;;;;;;5095218;28;20199;-75
2021/07/15 01:51:55;;;;;;;76.27;27.37;;;16.80;99.90;;;;;;5095227;28;20225;-75
2021/07/15 01:54:22;;;;;;;74.30;26.77;;;16.70;99.90;;;;;;5097539;28;20250;-75
2021/07/15 01:56:50;;;;;;;79.43;26.90;;;16.70;99.90;;;;;;5095369;28;20199;-75
2021/07/15 01:59:20;;;;;;;78.07;27.37;;;16.70;99.90;;;;;;5094047;28;20234;-75
2021/07/15 02:01:50;;;;;;;77.83;27.00;;;16.70;99.90;;;;;;5096192;28;20197;-75
2021/07/15 02:04:18;;;;;;;75.10;26.50;;;16.70;99.90;;;;;;5099119;28;20281;-75
2021/07/15 02:06:48;;;;;;;77.97;28.00;;;16.70;99.90;;;;;;5095292;28;20207;-76
2021/07/15 02:09:16;;;;;;;83.20;28.23;;;16.70;99.90;;;;;;5094259;28;20194;-75
2021/07/15 02:11:46;;;;;;;67.00;27.90;;;16.70;99.90;;;;;;5096496;28;20217;-75
2021/07/15 02:14:15;;;;;;;76.13;28.17;;;16.70;99.90;;;;;;5096667;28;20554;-75
2021/07/15 02:16:47;;;;;;;80.90;29.40;;;16.70;99.90;;;;;;5094804;28;20198;-75
2021/07/15 02:19:16;;;;;;;90.17;30.87;;;16.70;99.90;;;;;;5093901;28;20199;-75
2021/07/15 02:21:46;;;;;;;74.53;29.17;;;16.70;99.90;;;;;;5088437;28;20212;-76
2021/07/15 02:24:16;;;;;;;101.80;29.63;;;16.60;99.90;;;;;;5095244;28;20199;-75
2021/07/15 02:26:46;;;;;;;73.20;28.20;;;16.70;99.90;;;;;;5099098;28;20666;-75
2021/07/15 02:29:13;;;;;;;86.70;28.20;;;16.60;99.90;;;;;;5088961;28;20285;-75
2021/07/15 02:31:43;;;;;;;70.23;25.87;;;16.60;99.90;;;;;;5087938;28;20207;-75
2021/07/15 02:34:16;;;;;;;74.97;25.13;;;16.70;99.90;;;;;;5095041;28;20221;-75
2021/07/15 02:36:46;;;;;;;68.30;24.93;;;16.60;99.90;;;;;;5094964;28;20292;-75
2021/07/15 02:39:13;;;;;;;65.80;24.27;;;16.70;99.90;;;;;;5101640;28;20217;-75
2021/07/15 02:41:40;;;;;;;70.30;26.23;;;16.60;99.90;;;;;;5094567;28;20598;-75
2021/07/15 02:44:07;;;;;;;80.93;27.37;;;16.60;99.90;;;;;;5098094;28;20198;-75
2021/07/15 02:46:36;;;;;;;87.53;27.50;;;16.60;99.90;;;;;;5095102;28;20274;-75
2021/07/15 02:49:03;;;;;;;83.70;27.77;;;16.60;99.90;;;;;;5094897;28;20225;-75
2021/07/15 02:51:30;;;;;;;90.60;29.30;;;16.60;99.90;;;;;;5090439;28;20205;-76
2021/07/15 02:54:00;;;;;;;88.13;27.63;;;16.60;99.90;;;;;;5094448;28;20242;-75
2021/07/15 02:56:37;;;;;;;87.67;26.70;;;16.60;99.90;;;;;;5094495;28;20213;-76
2021/07/15 02:59:10;;;;;;;82.57;25.67;;;16.60;99.90;;;;;;5083381;28;20198;-75
2021/07/15 03:01:45;;;;;;;74.03;28.00;;;16.60;99.90;;;;;;5101803;28;20227;-75
2021/07/15 03:04:18;;;;;;;73.93;26.40;;;16.60;99.90;;;;;;5094561;28;20632;-75
2021/07/15 03:06:47;;;;;;;68.40;25.90;;;16.60;99.90;;;;;;5094338;28;20207;-75
2021/07/15 03:09:24;;;;;;;92.37;28.77;;;16.60;99.90;;;;;;5093836;28;20655;-75
2021/07/15 03:12:00;;;;;;;87.77;28.00;;;16.60;99.90;;;;;;5099902;28;20208;-75
2021/07/15 03:14:30;;;;;;;78.50;26.07;;;16.50;99.90;;;;;;5094394;28;20291;-75
2021/07/15 03:16:57;;;;;;;92.70;30.00;;;16.60;99.90;;;;;;5094570;28;20199;-76
2021/07/15 03:19:27;;;;;;;103.83;28.83;;;16.60;99.90;;;;;;5095309;28;20199;-75
2021/07/15 03:21:56;;;;;;;80.30;27.77;;;16.60;99.90;;;;;;5084384;28;20211;-75
2021/07/15 03:24:26;;;;;;;82.53;28.53;;;16.60;99.90;;;;;;5094090;28;20209;-75
2021/07/15 03:26:57;;;;;;;79.30;28.00;;;16.60;99.90;;;;;;5094433;28;20215;-75
2021/07/15 03:29:24;;;;;;;81.80;28.97;;;16.60;99.90;;;;;;5097598;28;20198;-75
2021/07/15 03:31:54;;;;;;;73.40;25.90;;;16.60;99.90;;;;;;5094265;28;20209;-75
2021/07/15 03:34:22;;;;;;;78.63;28.17;;;16.60;99.90;;;;;;5098440;28;20219;-75
2021/07/15 03:36:50;;;;;;;72.00;26.93;;;16.60;99.90;;;;;;5095795;28;20199;-75
2021/07/15 03:39:18;;;;;;;80.27;27.83;;;16.60;99.90;;;;;;5093605;28;20203;-75
2021/07/15 03:41:49;;;;;;;75.23;26.03;;;16.60;99.90;;;;;;5095139;28;20648;-75
2021/07/15 03:44:17;;;;;;;71.27;26.87;;;16.60;99.90;;;;;;5102128;28;20290;-75
2021/07/15 03:46:46;;;;;;;94.33;28.83;;;16.60;99.90;;;;;;5093532;28;20221;-75
2021/07/15 03:49:16;;;;;;;76.83;27.47;;;16.60;99.90;;;;;;5100300;28;20199;-75
2021/07/15 03:51:43;;;;;;;80.43;25.90;;;16.70;99.90;;;;;;5093898;28;20562;-75
2021/07/15 03:54:11;;;;;;;74.87;27.70;;;16.70;99.90;;;;;;5093551;28;20227;-75
2021/07/15 03:56:40;;;;;;;80.23;26.43;;;16.70;99.90;;;;;;5088866;28;20565;-76
2021/07/15 03:59:09;;;;;;;78.13;26.57;;;16.70;99.90;;;;;;5093824;28;20211;-76
2021/07/15 04:01:37;;;;;;;71.87;25.83;;;16.60;99.90;;;;;;5094669;28;20285;-75
2021/07/15 04:04:07;;;;;;;75.30;26.30;;;16.70;99.90;;;;;;5094070;28;20199;-75
2021/07/15 04:06:36;;;;;;;76.97;26.80;;;16.70;99.90;;;;;;5100608;28;20217;-75
2021/07/15 04:09:06;;;;;;;71.93;27.47;;;16.70;99.90;;;;;;5092653;28;20203;-75
2021/07/15 04:11:36;;;;;;;79.70;26.53;;;16.70;99.90;;;;;;5097629;28;20198;-75
2021/07/15 04:14:08;;;;;;;72.40;26.53;;;16.60;99.90;;;;;;5093519;28;20742;-75
2021/07/15 04:16:45;;;;;;;70.77;25.67;;;16.70;99.90;;;;;;5105744;28;20193;-75
2021/07/15 04:19:14;;;;;;;64.63;25.73;;;16.70;99.90;;;;;;5091082;28;20225;-75
2021/07/15 04:21:42;;;;;;;77.67;25.63;;;16.60;99.90;;;;;;5093205;28;20199;-75
2021/07/15 04:24:10;;;;;;;57.33;24.23;;;16.60;99.90;;;;;;5093250;28;20199;-75
2021/07/15 04:26:38;;;;;;;59.67;24.27;;;16.60;99.90;;;;;;5097376;28;20663;-75
2021/07/15 04:29:05;;;;;;;65.93;23.60;;;16.60;99.90;;;;;;5099654;28;20206;-75
2021/07/15 04:31:47;;;;;;;58.90;24.10;;;16.60;99.90;;;;;;5099713;28;20199;-75
2021/07/15 04:34:15;;;;;;;62.13;24.03;;;16.60;99.90;;;;;;5101001;28;20606;-75
2021/07/15 04:36:44;;;;;;;66.33;23.80;;;16.50;99.90;;;;;;5093621;28;20210;-75
2021/07/15 04:39:12;;;;;;;55.07;22.93;;;16.50;99.90;;;;;;5100446;28;20663;-75
2021/07/15 04:41:41;;;;;;;59.23;23.63;;;16.50;99.90;;;;;;5095824;28;20655;-75
2021/07/15 04:44:09;;;;;;;57.83;23.37;;;16.50;99.90;;;;;;5102454;28;20206;-75
2021/07/15 04:46:41;;;;;;;57.37;23.47;;;16.50;99.90;;;;;;5094520;28;20205;-76
2021/07/15 04:49:09;;;;;;;57.70;24.83;;;16.50;99.90;;;;;;5096626;28;20198;-75
2021/07/15 04:51:40;;;;;;;58.83;24.37;;;16.50;99.90;;;;;;5096536;28;20194;-75
2021/07/15 04:54:08;;;;;;;67.73;25.03;;;16.50;99.90;;;;;;5092699;28;20225;-75
2021/07/15 04:56:36;;;;;;;69.10;25.23;;;16.50;99.90;;;;;;5100817;28;20208;-75
2021/07/15 04:59:07;;;;;;;70.43;25.70;;;16.60;99.90;;;;;;5092627;28;20209;-75
2021/07/15 05:01:36;;;;;;;59.80;25.03;;;16.60;99.90;;;;;;5099197;28;20578;-75
2021/07/15 05:04:05;;;;;;;68.70;26.10;;;16.60;99.90;;;;;;5100813;28;20202;-75
2021/07/15 05:06:32;;;;;;;68.10;25.40;;;16.50;99.90;;;;;;5094772;28;20194;-75
2021/07/15 05:09:01;;;;;;;63.47;25.73;;;16.60;99.90;;;;;;5091875;28;20640;-75
2021/07/15 05:11:28;;;;;;;70.73;26.70;;;16.60;99.90;;;;;;5083831;28;20198;-75
2021/07/15 05:13:55;;;;;;;67.23;26.40;;;16.60;99.90;;;;;;5088943;28;20210;-75
2021/07/15 05:16:24;;;;;;;66.10;25.93;;;16.70;99.90;;;;;;5086192;28;20219;-77
2021/07/15 05:18:51;;;;;;;64.60;25.77;;;16.60;99.90;;;;;;5084146;28;20746;-75
2021/07/15 05:21:19;;;;;;;71.27;26.03;;;16.60;99.90;;;;;;5092282;28;20203;-75
2021/07/15 05:23:46;;;;;;;68.43;24.63;;;16.60;99.90;;;;;;5073148;28;20214;-75
2021/07/15 05:26:13;;;;;;;67.37;26.33;;;16.60;99.90;;;;;;5090644;28;20570;-75
2021/07/15 05:28:40;;;;;;;71.23;24.27;;;16.60;99.90;;;;;;5074723;28;20568;-75
2021/07/15 05:31:07;;;;;;;62.03;25.07;;;16.70;99.90;;;;;;5092559;28;20225;-75
2021/07/15 05:33:35;;;;;;;61.87;25.27;;;16.70;99.90;;;;;;5082332;28;20195;-76
2021/07/15 05:36:02;;;;;;;58.50;24.27;;;16.70;99.90;;;;;;5093346;28;20218;-75
2021/07/15 05:38:30;;;;;;;62.53;24.40;;;16.70;99.90;;;;;;5080692;28;20228;-75
2021/07/15 05:40:57;;;;;;;55.27;22.97;;;16.70;99.90;;;;;;5097735;28;20249;-75
2021/07/15 05:43:24;;;;;;;61.93;23.30;;;16.60;99.90;;;;;;5101290;28;20294;-75
2021/07/15 05:45:51;;;;;;;57.83;22.80;;;16.60;99.90;;;;;;5094881;28;20205;-75
2021/07/15 05:48:17;;;;;;;59.53;23.60;;;16.60;99.90;;;;;;5099045;28;20206;-75
2021/07/15 05:50:44;;;;;;;50.43;21.47;;;16.70;99.90;;;;;;5090957;28;20295;-74
2021/07/15 05:53:11;;;;;;;57.73;23.27;;;16.70;99.90;;;;;;5084675;28;20199;-74
2021/07/15 05:55:39;;;;;;;53.30;22.17;;;16.70;99.90;;;;;;5095665;28;20272;-74
2021/07/15 05:58:08;;;;;;;48.47;22.73;;;16.80;99.90;;;;;;5094690;28;20282;-75
2021/07/15 06:00:35;;;;;;;49.53;20.77;;;16.70;99.90;;;;;;5084641;28;20207;-74
2021/07/15 06:03:02;;;;;;;56.43;23.13;;;16.70;99.90;;;;;;5097637;28;20209;-75
2021/07/15 06:05:30;;;;;;;56.17;23.67;;;16.70;99.90;;;;;;5095981;28;20206;-75
2021/07/15 06:07:57;;;;;;;51.47;22.90;;;16.70;99.90;;;;;;5086472;28;20226;-75
2021/07/15 06:10:24;;;;;;;57.17;22.83;;;16.80;99.90;;;;;;5104460;28;20698;-74
2021/07/15 06:12:53;;;;;;;60.87;24.17;;;16.80;99.90;;;;;;5094384;28;20206;-75
2021/07/15 06:15:20;;;;;;;60.17;23.27;;;16.70;99.90;;;;;;5095236;28;20310;-74
2021/07/15 06:17:47;;;;;;;63.63;24.30;;;16.70;99.90;;;;;;5094732;28;20206;-74
2021/07/15 06:20:14;;;;;;;66.27;23.07;;;16.70;99.90;;;;;;5094771;28;20215;-75
2021/07/15 06:22:41;;;;;;;63.73;22.67;;;16.70;99.90;;;;;;5094299;28;20572;-75
2021/07/15 06:25:10;;;;;;;60.67;22.87;;;16.80;99.90;;;;;;5094286;28;20191;-75
2021/07/15 06:27:37;;;;;;;57.70;22.17;;;16.90;99.90;;;;;;5093102;28;20210;-75
2021/07/15 06:30:07;;;;;;;66.27;23.43;;;16.90;99.90;;;;;;5091703;28;20203;-75
2021/07/15 06:32:34;;;;;;;63.80;23.90;;;16.90;99.90;;;;;;5092173;28;20210;-75
2021/07/15 06:35:01;;;;;;;71.77;24.53;;;16.70;99.90;;;;;;5094960;28;20211;-75
2021/07/15 06:37:33;;;;;;;63.23;24.37;;;16.80;99.90;;;;;;5095158;28;20210;-75
2021/07/15 06:40:00;;;;;;;58.50;23.20;;;16.90;99.90;;;;;;5095102;28;20253;-75
2021/07/15 06:42:27;;;;;;;59.20;23.70;;;16.90;99.90;;;;;;5095376;28;20260;-75
2021/07/15 06:44:54;;;;;;;72.53;24.57;;;16.90;99.90;;;;;;5094814;28;20727;-74
2021/07/15 06:47:22;;;;;;;55.37;23.90;;;16.90;99.90;;;;;;5076092;28;20199;-75
2021/07/15 06:49:49;;;;;;;62.57;24.30;;;16.90;99.90;;;;;;5074737;28;20200;-75
2021/07/15 06:52:16;;;;;;;62.50;23.27;;;16.90;99.90;;;;;;5074349;28;20290;-75
2021/07/15 06:54:43;;;;;;;63.20;25.20;;;16.90;99.90;;;;;;5074811;28;20195;-75
2021/07/15 06:57:11;;;;;;;56.73;25.03;;;16.90;99.90;;;;;;5074423;28;20724;-75
2021/07/15 06:59:38;;;;;;;69.07;25.20;;;16.90;99.90;;;;;;5074727;28;20200;-75
2021/07/15 07:02:07;;;;;;;56.50;24.93;;;16.90;99.90;;;;;;5074134;28;20740;-75
2021/07/15 07:04:35;;;;;;;66.67;26.00;;;16.90;99.90;;;;;;5074327;28;20657;-75
2021/07/15 07:07:03;;;;;;;60.10;24.33;;;16.90;99.90;;;;;;5074620;28;20202;-75
2021/07/15 07:09:29;;;;;;;72.70;26.30;;;16.90;99.90;;;;;;5074663;28;20204;-75
2021/07/15 07:11:56;;;;;;;70.87;25.57;;;16.80;99.90;;;;;;5074594;28;20562;-75
2021/07/15 07:14:23;;;;;;;68.90;25.47;;;16.90;99.90;;;;;;5074176;28;20196;-75
2021/07/15 07:16:50;;;;;;;60.63;25.53;;;16.90;99.90;;;;;;5074293;28;20594;-75
2021/07/15 07:19:17;;;;;;;77.00;25.63;;;16.90;99.90;;;;;;5074177;28;20245;-75
2021/07/15 07:21:45;;;;;;;61.70;23.70;;;16.90;99.90;;;;;;5074551;28;20199;-75
2021/07/15 07:24:12;;;;;;;54.87;23.60;;;16.90;99.90;;;;;;5074155;28;20298;-76
2021/07/15 07:26:38;;;;;;;53.00;22.60;;;16.90;99.90;;;;;;5073972;28;20587;-75
2021/07/15 07:29:06;;;;;;;55.20;22.77;;;16.90;99.90;;;;;;5073725;28;20199;-77
2021/07/15 07:31:33;;;;;;;51.73;22.23;;;16.90;99.90;;;;;;5073804;28;20195;-76
2021/07/15 07:34:00;;;;;;;52.73;21.80;;;16.90;99.90;;;;;;5074632;28;20231;-75
2021/07/15 07:36:27;;;;;;;52.60;21.90;;;16.90;99.90;;;;;;5073818;28;20295;-75
2021/07/15 07:38:55;;;;;;;60.73;23.43;;;16.90;99.90;;;;;;5073570;28;20209;-76
2021/07/15 07:41:22;;;;;;;53.93;23.00;;;16.90;99.90;;;;;;5073708;28;20214;-76
2021/07/15 07:43:49;;;;;;;59.57;22.87;;;16.90;99.90;;;;;;5073699;28;20294;-75
2021/07/15 07:46:16;;;;;;;56.77;23.10;;;16.90;99.90;;;;;;5092212;28;20209;-75
2021/07/15 07:48:43;;;;;;;62.00;22.87;;;16.90;99.90;;;;;;5093706;28;20202;-75
2021/07/15 07:51:10;;;;;;;51.67;22.00;;;16.90;99.90;;;;;;5094008;28;20205;-75
2021/07/15 07:53:37;;;;;;;47.27;22.00;;;17.00;99.90;;;;;;5093435;28;20213;-75
2021/07/15 07:56:06;;;;;;;53.30;22.50;;;16.90;99.90;;;;;;5093569;28;20779;-75
2021/07/15 07:58:32;;;;;;;50.63;21.83;;;17.00;99.90;;;;;;5093623;28;20206;-75
2021/07/15 08:00:59;;;;;;;58.23;21.87;;;16.90;99.90;;;;;;5093173;28;20199;-76
2021/07/15 08:03:28;;;;;;;52.10;21.87;;;17.00;99.90;;;;;;5092763;28;20199;-75
2021/07/15 08:05:55;;;;;;;55.07;22.03;;;17.00;99.90;;;;;;5093539;28;20723;-76
2021/07/15 08:08:23;;;;;;;51.53;21.00;;;16.90;99.90;;;;;;5093916;28;20289;-76
2021/07/15 08:10:49;;;;;;;48.30;21.67;;;16.90;99.90;;;;;;5093312;28;20600;-75
2021/07/15 08:13:18;;;;;;;51.40;21.80;;;16.90;99.90;;;;;;5093360;28;20202;-75
2021/07/15 08:15:44;;;;;;;52.40;21.20;;;16.90;99.90;;;;;;5092765;28;20222;-75
2021/07/15 08:18:13;;;;;;;46.00;20.63;;;16.90;99.90;;;;;;5093321;28;20305;-75
2021/07/15 08:20:40;;;;;;;49.13;20.17;;;16.90;99.90;;;;;;5093169;28;20210;-75
2021/07/15 08:23:07;;;;;;;51.70;20.60;;;16.80;99.90;;;;;;5093471;28;20205;-74
2021/07/15 08:25:34;;;;;;;50.23;21.93;;;16.80;99.90;;;;;;5092824;28;20195;-75
2021/07/15 08:28:01;;;;;;;53.13;21.20;;;16.70;99.90;;;;;;5091111;28;20222;-75
2021/07/15 08:30:29;;;;;;;55.83;21.70;;;16.80;99.90;;;;;;5083204;28;20199;-75
2021/07/15 08:32:56;;;;;;;51.80;20.70;;;16.80;99.90;;;;;;5083129;28;20207;-76
2021/07/15 08:35:23;;;;;;;51.73;22.23;;;16.80;99.90;;;;;;5078227;28;20290;-75
2021/07/15 08:37:50;;;;;;;51.87;21.23;;;16.70;99.90;;;;;;5076647;28;20278;-75
2021/07/15 08:40:26;;;;;;;45.00;19.63;;;16.70;99.90;;;;;;5082631;28;20195;-76
2021/07/15 08:42:53;;;;;;;49.07;19.73;;;16.70;99.90;;;;;;5086505;28;20196;-76
2021/07/15 08:45:21;;;;;;;51.57;20.40;;;16.70;99.90;;;;;;5088564;28;20207;-76
2021/07/15 08:47:50;;;;;;;48.63;20.53;;;16.70;99.90;;;;;;5083845;28;20230;-75
2021/07/15 08:50:19;;;;;;;50.17;21.60;;;16.70;99.90;;;;;;5075424;28;20199;-75
2021/07/15 08:52:48;;;;;;;46.87;21.83;;;16.70;99.90;;;;;;5087525;28;20202;-76
2021/07/15 08:56:36;;;;;;;47.13;20.63;;;16.70;99.90;;;;;;5091431;28;20609;-76
2021/07/15 08:58:10;;;;;;;57.97;21.90;;;16.70;99.90;;;;;;5084334;28;20732;-77
2021/07/15 09:00:38;;;;;;;47.00;21.03;;;16.60;99.90;;;;;;5088811;28;20217;-76
2021/07/15 09:03:06;;;;;;;37.53;20.47;;;16.60;99.90;;;;;;5091834;28;20573;-76
2021/07/15 09:05:33;;;;;;;55.80;21.97;;;16.60;99.90;;;;;;5092133;28;20195;-77
2021/07/15 09:08:02;;;;;;;51.40;22.73;;;16.50;99.90;;;;;;5092688;28;20570;-77
2021/07/15 09:10:29;;;;;;;45.70;21.43;;;16.60;99.90;;;;;;5092308;28;20209;-77
2021/07/15 09:12:57;;;;;;;51.67;22.50;;;16.60;99.90;;;;;;5090552;28;20207;-76
2021/07/15 09:15:25;;;;;;;49.37;24.13;;;16.60;99.90;;;;;;5105964;28;20226;-76
2021/07/15 09:17:52;;;;;;;47.80;22.27;;;16.70;99.90;;;;;;5096415;28;20609;-75
2021/07/15 09:20:22;;;;;;;55.37;23.40;;;16.70;99.90;;;;;;5102295;28;20202;-75
2021/07/15 09:23:01;;;;;;;47.13;22.63;;;16.80;99.90;;;;;;5086881;28;20249;-75
2021/07/15 09:25:29;;;;;;;47.40;22.43;;;16.80;99.90;;;;;;5095850;28;20686;-75
2021/07/15 09:27:57;;;;;;;53.67;24.57;;;16.80;99.90;;;;;;5082606;28;20594;-76
2021/07/15 09:30:29;;;;;;;48.73;23.23;;;16.80;99.90;;;;;;5095784;28;20687;-75
2021/07/15 09:32:58;;;;;;;45.60;23.17;;;16.80;99.90;;;;;;5095848;28;20202;-75
2021/07/15 09:35:29;;;;;;;60.30;25.10;;;16.90;99.90;;;;;;5097341;28;20205;-76
2021/07/15 09:37:56;;;;;;;54.97;23.73;;;16.80;99.90;;;;;;5110006;28;20194;-76
2021/07/15 09:40:44;;;;;;;56.13;23.70;;;16.80;99.90;;;;;;5096047;28;21736;-74
2021/07/15 09:43:18;;;;;;;54.77;24.37;;;16.90;99.90;;;;;;5075234;28;20199;-74
2021/07/15 09:45:47;;;;;;;71.40;24.30;;;16.90;99.90;;;;;;5075758;28;20191;-74
2021/07/15 09:48:17;;;;;;;60.77;24.83;;;16.80;99.90;;;;;;5075800;28;20200;-74
2021/07/15 09:50:45;;;;;;;54.37;24.50;;;16.80;99.90;;;;;;5082250;28;20294;-74
2021/07/15 09:53:18;;;;;;;73.60;26.23;;;16.90;99.90;;;;;;5096136;28;20202;-73
2021/07/15 09:55:46;;;;;;;52.40;24.97;;;16.90;99.90;;;;;;5095572;28;20289;-73
2021/07/15 09:58:14;;;;;;;59.67;26.60;;;16.90;99.90;;;;;;5095776;28;20206;-74
2021/07/15 10:00:42;;;;;;;61.03;27.17;;;16.90;99.90;;;;;;5094990;28;20202;-74
2021/07/15 10:03:11;;;;;;;57.03;27.43;;;16.90;99.90;;;;;;5092773;28;20201;-73
2021/07/15 10:05:39;;;;;;;57.27;26.40;;;16.90;99.90;;;;;;5095092;28;20201;-73
2021/07/15 10:08:10;;;;;;;55.37;27.20;;;16.90;99.90;;;;;;5094923;28;20298;-73
2021/07/15 10:10:39;;;;;;;61.80;27.40;;;16.90;99.90;;;;;;5095216;28;20285;-74
2021/07/15 10:13:16;;;;;;;62.47;29.03;;;17.00;99.90;;;;;;5094812;28;20194;-74
2021/07/15 10:15:44;;;;;;;63.33;29.40;;;16.90;99.90;;;;;;5094704;28;20252;-74
2021/07/15 10:18:12;;;;;;;68.40;27.53;;;16.90;99.90;;;;;;5092998;28;20205;-74
2021/07/15 10:20:52;;;;;;;61.00;28.30;;;16.90;99.90;;;;;;5094705;28;20664;-73
2021/07/15 10:23:31;;;;;;;57.57;29.57;;;17.00;99.90;;;;;;5093518;28;20631;-73
2021/07/15 10:25:59;;;;;;;57.57;29.33;;;16.90;99.90;;;;;;5092178;28;20194;-73
2021/07/15 10:28:27;;;;;;;63.37;30.10;;;16.90;99.90;;;;;;5093693;28;20301;-73
2021/07/15 10:30:55;;;;;;;71.20;30.20;;;16.90;99.90;;;;;;5094835;28;20282;-74
2021/07/15 10:33:23;;;;;;;67.37;29.67;;;16.90;99.90;;;;;;5090846;28;20578;-75
2021/07/15 10:35:50;;;;;;;61.93;29.83;;;17.00;99.90;;;;;;5091468;28;20195;-74
2021/07/15 10:38:17;;;;;;;64.53;28.80;;;17.00;99.90;;;;;;5091591;28;20226;-77
2021/07/15 10:40:45;;;;;;;64.17;29.60;;;16.90;99.90;;;;;;5076393;28;20290;-75
2021/07/15 10:43:13;;;;;;;61.53;29.13;;;16.90;99.90;;;;;;5075022;28;20207;-74
2021/07/15 10:45:42;;;;;;;60.67;28.60;;;16.90;99.90;;;;;;5075313;28;20203;-75
2021/07/15 10:48:12;;;;;;;64.00;28.83;;;16.80;99.90;;;;;;5092198;28;20560;-75
2021/07/15 10:50:40;;;;;;;62.23;30.77;;;16.80;99.90;;;;;;5096971;28;20558;-75
2021/07/15 10:53:07;;;;;;;63.90;29.13;;;16.80;99.90;;;;;;5089552;28;20201;-76
2021/07/15 10:55:38;;;;;;;61.43;28.97;;;16.80;99.90;;;;;;5093478;28;20195;-75
2021/07/15 10:58:06;;;;;;;71.87;30.03;;;16.80;99.90;;;;;;5092919;28;20683;-76
2021/07/15 11:00:33;;;;;;;59.57;28.77;;;16.70;99.90;;;;;;5093760;28;20222;-75
2021/07/15 11:03:12;;;;;;;56.43;30.40;;;16.70;99.90;;;;;;5093628;28;20201;-76
2021/07/15 11:05:49;;;;;;;61.47;27.50;;;16.70;99.90;;;;;;5096412;28;20203;-76
2021/07/15 11:08:17;;;;;;;61.27;29.43;;;16.60;99.90;;;;;;5095607;28;20214;-75
2021/07/15 11:10:44;;;;;;;62.57;29.57;;;16.60;99.90;;;;;;5099834;28;20199;-75
2021/07/15 11:13:13;;;;;;;63.13;30.03;;;16.60;99.90;;;;;;5086347;28;20201;-75
2021/07/15 11:15:49;;;;;;;60.17;30.43;;;16.60;99.90;;;;;;5090093;28;20644;-76
2021/07/15 11:18:57;;;;;;;63.80;30.20;;;16.60;99.90;;;;;;5099866;28;20601;-75
2021/07/15 11:21:36;;;;;;;69.33;30.53;;;16.60;99.90;;;;;;5087462;28;20189;-74
2021/07/15 11:24:54;;;;;;;80.63;30.60;;;16.60;99.90;;;;;;5090467;28;20199;-75
2021/07/15 11:27:34;;;;;;;67.83;30.90;;;16.60;99.90;;;;;;5101805;28;20194;-74
2021/07/15 11:30:08;;;;;;;61.77;31.13;;;16.60;99.90;;;;;;5100240;28;20202;-74
2021/07/15 11:32:35;;;;;;;63.43;31.20;;;16.60;99.90;;;;;;5093257;28;20302;-75
2021/07/15 11:35:20;;;;;;;59.20;29.90;;;16.70;99.90;;;;;;5097352;28;20285;-75
2021/07/15 11:38:02;;;;;;;69.93;30.00;;;16.60;99.90;;;;;;5091303;28;20220;-74
2021/07/15 11:40:45;;;;;;;78.20;30.70;;;16.60;99.90;;;;;;5093407;28;20208;-73
2021/07/15 11:43:20;;;;;;;63.83;30.30;;;16.70;99.90;;;;;;5093025;28;20199;-73
2021/07/15 11:46:14;;;;;;;62.37;30.17;;;16.70;99.90;;;;;;5090013;28;20202;-73
2021/07/15 11:48:50;;;;;;;59.00;30.13;;;16.80;99.90;;;;;;5087307;28;20203;-73
2021/07/15 11:51:25;;;;;;;63.30;29.97;;;16.80;99.90;;;;;;5090779;28;20194;-74
2021/07/15 11:54:24;;;;;;;63.27;30.70;;;16.80;99.90;;;;;;5092263;28;20281;-74
2021/07/15 11:56:55;;;;;;;63.90;30.17;;;16.80;99.90;;;;;;5090238;28;20710;-75
2021/07/15 11:59:40;;;;;;;59.00;29.60;;;16.90;99.90;;;;;;5090042;28;20256;-76
2021/07/15 12:02:23;;;;;;;66.50;29.70;;;16.90;99.90;;;;;;5089951;28;20190;-74
2021/07/15 12:05:21;;;;;;;62.60;31.30;;;16.90;99.90;;;;;;5087148;28;20229;-75
2021/07/15 12:08:05;;;;;;;66.80;29.60;;;16.90;99.90;;;;;;5090814;28;20191;-75
2021/07/15 12:10:36;;;;;;;63.33;28.17;;;16.90;99.90;;;;;;5093569;28;20238;-74
2021/07/15 12:13:04;;;;;;;69.27;28.73;;;16.80;99.90;;;;;;5086047;28;20183;-74
2021/07/15 12:15:32;;;;;;;58.13;28.27;;;16.90;99.90;;;;;;5086787;28;20187;-74
2021/07/15 12:18:01;;;;;;;57.43;28.67;;;16.90;99.90;;;;;;5081815;28;20291;-73
2021/07/15 12:20:36;;;;;;;52.23;27.60;;;16.90;99.90;;;;;;5094634;28;20281;-73
2021/07/15 12:23:04;;;;;;;66.00;29.17;;;16.80;99.90;;;;;;5088961;28;20951;-75
2021/07/15 12:25:34;;;;;;;54.17;28.53;;;16.80;99.90;;;;;;5090755;28;20739;-74
2021/07/15 12:28:06;;;;;;;54.47;29.00;;;16.80;99.90;;;;;;5086409;28;20199;-73
2021/07/15 12:30:42;;;;;;;60.23;28.63;;;16.80;99.90;;;;;;5091706;28;20183;-73
2021/07/15 12:33:11;;;;;;;63.47;28.90;;;16.80;99.90;;;;;;5088556;28;20276;-73
2021/07/15 12:35:40;;;;;;;60.97;28.50;;;16.80;99.90;;;;;;5081604;28;20251;-75
2021/07/15 12:38:32;;;;;;;52.07;26.57;;;16.80;99.90;;;;;;5079506;28;20219;-73
2021/07/15 12:41:15;;;;;;;51.27;27.17;;;16.90;99.90;;;;;;5068359;28;20193;-73